Terminal Aerodrome Forecast
Issued by NWS

Home | Current Version | Previous Version | Text Only | Print | Product List | Glossary On
Versions: 1 2 3 4 5 6 7 8 9 10 11 12
000
FTUS46 KOTX 241139
TAFMWH
TAF
KMWH 241139Z 2412/2512 21007KT P6SM SCT060 OVC080
     FM242000 21006KT P6SM VCSH SCT040 OVC100
     FM250200 25006KT P6SM SCT050 BKN100
     FM250600 27006KT P6SM FEW100=

USA.gov is the U.S. government's official web portal to all federal, state and local government web resources and services.